sensor_id;sensor_type;location;lat;lon;timestamp;pressure;altitude;pressure_sealevel;temperature;humidity
71344;BME280;59146;43.850;25.948;2022-10-16T00:01:46;102011.50;;;9.90;73.63
71344;BME280;59146;43.850;25.948;2022-10-16T00:04:12;101936.59;;;9.41;73.73
71344;BME280;59146;43.850;25.948;2022-10-16T00:06:37;101955.41;;;9.51;74.17
71344;BME280;59146;43.850;25.948;2022-10-16T00:09:03;101987.31;;;9.59;74.76
71344;BME280;59146;43.850;25.948;2022-10-16T00:11:31;101950.38;;;9.45;75.41
71344;BME280;59146;43.850;25.948;2022-10-16T00:14:00;101967.50;;;9.53;76.26
71344;BME280;59146;43.850;25.948;2022-10-16T00:16:27;101936.31;;;9.24;76.94
71344;BME280;59146;43.850;25.948;2022-10-16T00:18:53;101952.00;;;9.23;78.48
71344;BME280;59146;43.850;25.948;2022-10-16T00:21:23;102003.06;;;9.56;79.00
71344;BME280;59146;43.850;25.948;2022-10-16T00:23:51;102042.50;;;9.73;79.54
71344;BME280;59146;43.850;25.948;2022-10-16T00:26:17;101977.28;;;9.47;79.02
71344;BME280;59146;43.850;25.948;2022-10-16T00:28:48;102004.22;;;9.47;79.59
71344;BME280;59146;43.850;25.948;2022-10-16T00:31:15;101993.56;;;9.55;79.50
71344;BME280;59146;43.850;25.948;2022-10-16T00:33:41;101996.44;;;9.72;78.90
71344;BME280;59146;43.850;25.948;2022-10-16T00:36:09;101959.00;;;9.73;76.79
71344;BME280;59146;43.850;25.948;2022-10-16T00:38:34;102010.06;;;10.06;76.07
71344;BME280;59146;43.850;25.948;2022-10-16T00:41:00;101965.56;;;9.85;74.97
71344;BME280;59146;43.850;25.948;2022-10-16T00:43:47;102045.41;;;10.41;74.73
71344;BME280;59146;43.850;25.948;2022-10-16T00:48:43;102035.13;;;10.36;72.63
71344;BME280;59146;43.850;25.948;2022-10-16T00:51:10;101981.56;;;10.00;71.50
71344;BME280;59146;43.850;25.948;2022-10-16T00:53:36;101975.63;;;9.95;70.96
71344;BME280;59146;43.850;25.948;2022-10-16T00:56:02;102038.94;;;10.28;70.95
71344;BME280;59146;43.850;25.948;2022-10-16T00:58:28;101976.59;;;9.93;71.05
71344;BME280;59146;43.850;25.948;2022-10-16T01:00:53;101925.31;;;9.67;70.38
71344;BME280;59146;43.850;25.948;2022-10-16T01:03:28;102007.09;;;10.17;70.21
71344;BME280;59146;43.850;25.948;2022-10-16T01:08:57;102050.69;;;10.39;70.22
71344;BME280;59146;43.850;25.948;2022-10-16T01:11:44;102045.59;;;10.36;70.24
71344;BME280;59146;43.850;25.948;2022-10-16T01:15:01;102032.25;;;10.19;69.99
71344;BME280;59146;43.850;25.948;2022-10-16T01:17:17;101990.03;;;9.82;70.62
71344;BME280;59146;43.850;25.948;2022-10-16T01:22:17;101951.19;;;9.73;69.93
71344;BME280;59146;43.850;25.948;2022-10-16T01:24:48;101987.00;;;9.94;69.77
71344;BME280;59146;43.850;25.948;2022-10-16T01:27:26;101951.78;;;9.81;69.61
71344;BME280;59146;43.850;25.948;2022-10-16T01:29:57;101980.75;;;9.98;69.58
71344;BME280;59146;43.850;25.948;2022-10-16T01:32:37;101963.94;;;9.82;69.61
71344;BME280;59146;43.850;25.948;2022-10-16T01:38:00;102007.59;;;10.02;69.84
71344;BME280;59146;43.850;25.948;2022-10-16T01:40:29;101975.28;;;9.55;70.81
71344;BME280;59146;43.850;25.948;2022-10-16T01:43:00;101965.09;;;9.47;70.98
71344;BME280;59146;43.850;25.948;2022-10-16T01:45:29;102047.69;;;9.99;71.28
71344;BME280;59146;43.850;25.948;2022-10-16T01:47:58;101984.25;;;9.73;71.47
71344;BME280;59146;43.850;25.948;2022-10-16T01:50:26;101995.34;;;9.79;70.88
71344;BME280;59146;43.850;25.948;2022-10-16T01:52:52;101987.41;;;9.82;70.20
71344;BME280;59146;43.850;25.948;2022-10-16T01:55:28;101974.09;;;9.63;71.13
71344;BME280;59146;43.850;25.948;2022-10-16T01:57:55;102017.03;;;9.55;73.22
71344;BME280;59146;43.850;25.948;2022-10-16T02:00:22;102079.94;;;9.72;73.98
71344;BME280;59146;43.850;25.948;2022-10-16T02:02:49;101963.03;;;9.05;74.68
71344;BME280;59146;43.850;25.948;2022-10-16T02:08:07;102073.84;;;9.45;74.78
71344;BME280;59146;43.850;25.948;2022-10-16T02:10:34;101963.28;;;8.68;74.36
71344;BME280;59146;43.850;25.948;2022-10-16T02:13:05;102072.13;;;9.17;74.53
71344;BME280;59146;43.850;25.948;2022-10-16T02:15:31;102068.78;;;9.12;74.95
71344;BME280;59146;43.850;25.948;2022-10-16T02:17:57;102035.91;;;8.78;75.55
71344;BME280;59146;43.850;25.948;2022-10-16T02:20:27;102050.91;;;8.70;75.73
71344;BME280;59146;43.850;25.948;2022-10-16T02:22:54;102090.63;;;8.78;76.21
71344;BME280;59146;43.850;25.948;2022-10-16T02:25:31;102046.28;;;8.49;76.23
71344;BME280;59146;43.850;25.948;2022-10-16T02:28:08;101962.09;;;7.86;76.05
71344;BME280;59146;43.850;25.948;2022-10-16T02:30:45;102027.78;;;8.29;76.54
71344;BME280;59146;43.850;25.948;2022-10-16T02:33:14;102055.31;;;8.36;77.13
71344;BME280;59146;43.850;25.948;2022-10-16T02:35:41;102050.91;;;8.40;76.84
71344;BME280;59146;43.850;25.948;2022-10-16T02:38:08;102011.44;;;7.89;77.71
71344;BME280;59146;43.850;25.948;2022-10-16T02:40:34;102012.59;;;7.77;78.38
71344;BME280;59146;43.850;25.948;2022-10-16T02:43:03;102052.88;;;7.96;78.59
71344;BME280;59146;43.850;25.948;2022-10-16T02:45:29;102064.91;;;8.02;78.84
71344;BME280;59146;43.850;25.948;2022-10-16T02:47:55;102016.84;;;7.81;78.23
71344;BME280;59146;43.850;25.948;2022-10-16T02:50:20;102054.34;;;8.07;77.70
71344;BME280;59146;43.850;25.948;2022-10-16T02:52:45;102079.91;;;8.25;77.27
71344;BME280;59146;43.850;25.948;2022-10-16T02:55:11;102105.88;;;8.29;77.11
71344;BME280;59146;43.850;25.948;2022-10-16T02:57:36;102082.75;;;8.16;77.24
71344;BME280;59146;43.850;25.948;2022-10-16T03:00:04;102053.06;;;7.89;77.58
71344;BME280;59146;43.850;25.948;2022-10-16T03:02:30;102086.44;;;8.07;77.89
71344;BME280;59146;43.850;25.948;2022-10-16T03:04:55;102020.56;;;7.73;77.36
71344;BME280;59146;43.850;25.948;2022-10-16T03:07:21;102114.78;;;8.18;77.36
71344;BME280;59146;43.850;25.948;2022-10-16T03:09:46;102059.31;;;7.82;76.85
71344;BME280;59146;43.850;25.948;2022-10-16T03:12:11;102070.22;;;7.97;76.52
71344;BME280;59146;43.850;25.948;2022-10-16T03:14:37;102117.25;;;8.24;76.52
71344;BME280;59146;43.850;25.948;2022-10-16T03:17:02;102072.09;;;7.91;76.69
71344;BME280;59146;43.850;25.948;2022-10-16T03:19:28;102090.94;;;8.00;77.10
71344;BME280;59146;43.850;25.948;2022-10-16T03:21:53;102038.97;;;7.64;77.30
71344;BME280;59146;43.850;25.948;2022-10-16T03:24:19;102039.19;;;7.55;77.92
71344;BME280;59146;43.850;25.948;2022-10-16T03:26:44;102106.44;;;8.05;78.25
71344;BME280;59146;43.850;25.948;2022-10-16T03:29:09;102129.97;;;8.37;78.71
71344;BME280;59146;43.850;25.948;2022-10-16T03:31:35;102116.34;;;8.26;79.27
71344;BME280;59146;43.850;25.948;2022-10-16T03:34:00;102104.50;;;8.13;80.19
71344;BME280;59146;43.850;25.948;2022-10-16T03:36:25;102121.69;;;8.20;80.94
71344;BME280;59146;43.850;25.948;2022-10-16T03:38:51;102127.09;;;8.11;81.23
71344;BME280;59146;43.850;25.948;2022-10-16T03:41:16;102087.88;;;7.85;81.32
71344;BME280;59146;43.850;25.948;2022-10-16T03:43:42;102106.91;;;7.87;81.17
71344;BME280;59146;43.850;25.948;2022-10-16T03:46:07;102023.41;;;7.26;81.32
71344;BME280;59146;43.850;25.948;2022-10-16T03:48:33;102076.25;;;7.63;81.31
71344;BME280;59146;43.850;25.948;2022-10-16T03:50:58;102100.56;;;7.97;80.83
71344;BME280;59146;43.850;25.948;2022-10-16T03:53:24;102053.50;;;7.71;80.56
71344;BME280;59146;43.850;25.948;2022-10-16T03:55:50;102091.13;;;7.93;80.38
71344;BME280;59146;43.850;25.948;2022-10-16T03:58:15;102066.50;;;7.72;80.36
71344;BME280;59146;43.850;25.948;2022-10-16T04:00:42;102078.91;;;7.61;80.55
71344;BME280;59146;43.850;25.948;2022-10-16T04:03:08;102113.09;;;7.81;80.64
71344;BME280;59146;43.850;25.948;2022-10-16T04:05:33;102116.66;;;7.77;80.42
71344;BME280;59146;43.850;25.948;2022-10-16T04:07:59;101910.63;;;6.59;79.74
71344;BME280;59146;43.850;25.948;2022-10-16T04:10:24;102094.22;;;7.73;79.77
71344;BME280;59146;43.850;25.948;2022-10-16T04:12:49;102094.34;;;7.67;79.92
71344;BME280;59146;43.850;25.948;2022-10-16T04:15:15;102133.66;;;7.92;79.63
71344;BME280;59146;43.850;25.948;2022-10-16T04:17:40;102120.88;;;7.83;79.61
71344;BME280;59146;43.850;25.948;2022-10-16T04:20:06;102051.94;;;7.27;79.84
71344;BME280;59146;43.850;25.948;2022-10-16T04:22:31;102051.41;;;7.13;79.76
71344;BME280;59146;43.850;25.948;2022-10-16T04:24:57;102060.72;;;7.23;79.97
71344;BME280;59146;43.850;25.948;2022-10-16T04:27:22;102035.72;;;7.17;79.57
71344;BME280;59146;43.850;25.948;2022-10-16T04:29:47;102135.78;;;7.76;79.85
71344;BME280;59146;43.850;25.948;2022-10-16T04:32:13;102069.91;;;7.38;79.71
71344;BME280;59146;43.850;25.948;2022-10-16T04:34:39;102104.69;;;7.70;78.88
71344;BME280;59146;43.850;25.948;2022-10-16T04:37:05;102104.91;;;7.61;78.54
71344;BME280;59146;43.850;25.948;2022-10-16T04:39:30;102066.47;;;7.37;79.00
71344;BME280;59146;43.850;25.948;2022-10-16T04:41:56;102128.41;;;7.57;79.04
71344;BME280;59146;43.850;25.948;2022-10-16T04:44:21;102101.78;;;7.47;78.80
71344;BME280;59146;43.850;25.948;2022-10-16T04:46:47;102119.06;;;7.50;78.88
71344;BME280;59146;43.850;25.948;2022-10-16T04:49:12;102104.47;;;7.43;78.89
71344;BME280;59146;43.850;25.948;2022-10-16T04:51:37;102087.22;;;7.39;79.17
71344;BME280;59146;43.850;25.948;2022-10-16T04:54:03;102154.59;;;7.87;79.03
71344;BME280;59146;43.850;25.948;2022-10-16T04:56:28;102073.50;;;7.70;78.32
71344;BME280;59146;43.850;25.948;2022-10-16T04:58:54;102075.75;;;7.84;77.73
71344;BME280;59146;43.850;25.948;2022-10-16T05:01:19;102105.19;;;8.20;76.93
71344;BME280;59146;43.850;25.948;2022-10-16T05:03:44;102112.88;;;8.27;76.35
71344;BME280;59146;43.850;25.948;2022-10-16T05:06:10;102131.25;;;8.53;75.83
71344;BME280;59146;43.850;25.948;2022-10-16T05:08:35;102170.88;;;8.97;75.81
71344;BME280;59146;43.850;25.948;2022-10-16T05:11:01;102162.81;;;9.06;76.62
71344;BME280;59146;43.850;25.948;2022-10-16T05:13:27;102182.19;;;9.28;77.66
71344;BME280;59146;43.850;25.948;2022-10-16T05:15:52;102066.59;;;8.69;76.85
71344;BME280;59146;43.850;25.948;2022-10-16T05:18:18;102155.63;;;9.43;75.96
71344;BME280;59146;43.850;25.948;2022-10-16T05:20:43;102174.34;;;9.57;75.38
71344;BME280;59146;43.850;25.948;2022-10-16T05:23:09;102149.03;;;9.31;75.54
71344;BME280;59146;43.850;25.948;2022-10-16T05:25:37;102154.56;;;9.21;76.11
71344;BME280;59146;43.850;25.948;2022-10-16T05:28:03;102231.88;;;9.52;76.90
71344;BME280;59146;43.850;25.948;2022-10-16T05:30:29;102125.13;;;8.87;77.24
71344;BME280;59146;43.850;25.948;2022-10-16T05:32:54;102190.44;;;9.42;76.96
71344;BME280;59146;43.850;25.948;2022-10-16T05:35:20;102209.47;;;10.02;74.58
71344;BME280;59146;43.850;25.948;2022-10-16T05:37:46;102213.53;;;10.65;72.05
71344;BME280;59146;43.850;25.948;2022-10-16T05:40:12;102158.22;;;10.77;69.32
71344;BME280;59146;43.850;25.948;2022-10-16T05:42:38;102198.44;;;11.45;67.72
71344;BME280;59146;43.850;25.948;2022-10-16T05:45:11;102241.88;;;12.17;65.74
71344;BME280;59146;43.850;25.948;2022-10-16T05:47:37;102238.06;;;12.67;63.44
71344;BME280;59146;43.850;25.948;2022-10-16T05:50:03;102202.81;;;12.54;61.94
71344;BME280;59146;43.850;25.948;2022-10-16T05:52:29;102176.25;;;12.62;61.14
71344;BME280;59146;43.850;25.948;2022-10-16T05:54:54;102247.41;;;13.15;60.97
71344;BME280;59146;43.850;25.948;2022-10-16T05:57:20;102228.50;;;13.27;59.41
71344;BME280;59146;43.850;25.948;2022-10-16T05:59:46;102231.25;;;13.63;57.82
71344;BME280;59146;43.850;25.948;2022-10-16T06:02:16;102242.72;;;13.79;56.52
71344;BME280;59146;43.850;25.948;2022-10-16T06:04:41;102202.28;;;13.45;56.21
71344;BME280;59146;43.850;25.948;2022-10-16T06:07:07;102209.66;;;13.37;56.52
71344;BME280;59146;43.850;25.948;2022-10-16T06:09:32;102225.28;;;13.40;56.12
71344;BME280;59146;43.850;25.948;2022-10-16T06:11:58;102237.56;;;13.59;55.97
71344;BME280;59146;43.850;25.948;2022-10-16T06:14:23;102235.84;;;13.57;56.14
71344;BME280;59146;43.850;25.948;2022-10-16T06:16:49;102236.91;;;13.72;55.42
71344;BME280;59146;43.850;25.948;2022-10-16T06:19:14;102255.56;;;13.66;55.77
71344;BME280;59146;43.850;25.948;2022-10-16T06:21:41;102233.06;;;13.42;55.86
71344;BME280;59146;43.850;25.948;2022-10-16T06:24:07;102279.78;;;13.91;55.15
71344;BME280;59146;43.850;25.948;2022-10-16T06:26:33;102265.59;;;13.95;54.64
71344;BME280;59146;43.850;25.948;2022-10-16T06:28:59;102158.84;;;13.38;54.82
71344;BME280;59146;43.850;25.948;2022-10-16T06:31:25;102253.97;;;14.01;54.41
71344;BME280;59146;43.850;25.948;2022-10-16T06:33:53;102152.97;;;13.33;54.80
71344;BME280;59146;43.850;25.948;2022-10-16T06:36:19;102277.78;;;14.33;53.85
71344;BME280;59146;43.850;25.948;2022-10-16T06:38:45;102217.75;;;14.07;54.02
71344;BME280;59146;43.850;25.948;2022-10-16T06:41:15;102256.34;;;14.43;53.89
71344;BME280;59146;43.850;25.948;2022-10-16T06:43:41;102293.72;;;15.00;52.77
71344;BME280;59146;43.850;25.948;2022-10-16T06:46:10;102201.81;;;14.46;52.29
71344;BME280;59146;43.850;25.948;2022-10-16T06:48:38;102224.38;;;14.33;53.87
71344;BME280;59146;43.850;25.948;2022-10-16T06:51:06;102243.53;;;14.35;54.58
71344;BME280;59146;43.850;25.948;2022-10-16T06:53:35;102301.59;;;14.49;55.54
71344;BME280;59146;43.850;25.948;2022-10-16T06:56:11;102267.63;;;14.45;54.78
71344;BME280;59146;43.850;25.948;2022-10-16T06:58:38;102285.84;;;14.48;55.23
71344;BME280;59146;43.850;25.948;2022-10-16T07:01:04;102291.84;;;14.68;54.91
71344;BME280;59146;43.850;25.948;2022-10-16T07:03:30;102316.72;;;15.14;54.40
71344;BME280;59146;43.850;25.948;2022-10-16T07:05:56;102266.72;;;14.80;54.99
71344;BME280;59146;43.850;25.948;2022-10-16T07:08:21;102238.19;;;14.72;54.81
71344;BME280;59146;43.850;25.948;2022-10-16T07:10:47;102224.78;;;14.77;54.82
71344;BME280;59146;43.850;25.948;2022-10-16T07:13:13;102313.38;;;15.28;54.86
71344;BME280;59146;43.850;25.948;2022-10-16T07:15:39;102301.31;;;15.06;55.20
71344;BME280;59146;43.850;25.948;2022-10-16T07:18:05;102270.97;;;14.82;55.26
71344;BME280;59146;43.850;25.948;2022-10-16T07:20:30;102293.50;;;14.88;55.90
71344;BME280;59146;43.850;25.948;2022-10-16T07:22:56;102267.78;;;14.59;56.16
71344;BME280;59146;43.850;25.948;2022-10-16T07:25:21;102241.56;;;14.40;56.47
71344;BME280;59146;43.850;25.948;2022-10-16T07:27:46;102295.56;;;14.47;57.54
71344;BME280;59146;43.850;25.948;2022-10-16T07:30:12;102217.25;;;13.81;57.76
71344;BME280;59146;43.850;25.948;2022-10-16T07:32:37;102313.03;;;14.11;58.91
71344;BME280;59146;43.850;25.948;2022-10-16T07:35:03;102259.72;;;13.33;61.13
71344;BME280;59146;43.850;25.948;2022-10-16T07:37:28;102283.03;;;13.40;61.82
71344;BME280;59146;43.850;25.948;2022-10-16T07:39:54;102319.28;;;13.31;63.19
71344;BME280;59146;43.850;25.948;2022-10-16T07:42:19;102276.69;;;12.84;64.41
71344;BME280;59146;43.850;25.948;2022-10-16T07:44:45;102291.09;;;12.74;64.93
71344;BME280;59146;43.850;25.948;2022-10-16T07:47:10;102283.63;;;12.65;65.65
71344;BME280;59146;43.850;25.948;2022-10-16T07:49:36;102219.34;;;12.35;65.23
71344;BME280;59146;43.850;25.948;2022-10-16T07:52:01;102254.44;;;12.52;66.09
71344;BME280;59146;43.850;25.948;2022-10-16T07:54:26;102252.66;;;12.53;65.75
71344;BME280;59146;43.850;25.948;2022-10-16T07:56:52;102215.69;;;12.39;65.60
71344;BME280;59146;43.850;25.948;2022-10-16T07:59:17;102170.50;;;11.90;65.90
71344;BME280;59146;43.850;25.948;2022-10-16T08:01:43;102249.31;;;12.49;65.39
71344;BME280;59146;43.850;25.948;2022-10-16T08:04:09;102311.84;;;13.00;64.60
71344;BME280;59146;43.850;25.948;2022-10-16T08:06:39;102317.09;;;13.00;61.25
71344;BME280;59146;43.850;25.948;2022-10-16T08:09:06;102338.38;;;13.14;64.64
71344;BME280;59146;43.850;25.948;2022-10-16T08:11:32;102237.56;;;12.80;64.12
71344;BME280;59146;43.850;25.948;2022-10-16T08:13:57;102269.81;;;13.22;62.14
71344;BME280;59146;43.850;25.948;2022-10-16T08:16:23;102162.69;;;12.72;62.66
71344;BME280;59146;43.850;25.948;2022-10-16T08:18:49;102317.34;;;13.75;59.00
71344;BME280;59146;43.850;25.948;2022-10-16T08:21:21;102276.25;;;13.74;62.14
71344;BME280;59146;43.850;25.948;2022-10-16T08:23:49;102282.78;;;13.84;61.03
71344;BME280;59146;43.850;25.948;2022-10-16T08:26:14;102276.66;;;13.65;61.14
71344;BME280;59146;43.850;25.948;2022-10-16T08:28:40;102314.72;;;13.75;61.10
71344;BME280;59146;43.850;25.948;2022-10-16T08:31:12;102344.47;;;13.94;60.84
71344;BME280;59146;43.850;25.948;2022-10-16T08:33:39;102264.56;;;13.42;61.84
71344;BME280;59146;43.850;25.948;2022-10-16T08:36:06;102339.78;;;13.82;61.90
71344;BME280;59146;43.850;25.948;2022-10-16T08:38:32;102341.16;;;13.90;61.91
71344;BME280;59146;43.850;25.948;2022-10-16T08:49:31;102313.84;;;13.74;60.80
71344;BME280;59146;43.850;25.948;2022-10-16T08:51:57;102337.38;;;13.96;61.22
71344;BME280;59146;43.850;25.948;2022-10-16T08:54:35;102262.25;;;13.54;61.18
71344;BME280;59146;43.850;25.948;2022-10-16T08:57:17;102340.72;;;13.99;60.74
71344;BME280;59146;43.850;25.948;2022-10-16T08:59:44;102313.59;;;13.99;59.91
71344;BME280;59146;43.850;25.948;2022-10-16T09:07:27;102344.06;;;14.59;57.94
71344;BME280;59146;43.850;25.948;2022-10-16T09:12:53;102338.06;;;14.74;55.88
71344;BME280;59146;43.850;25.948;2022-10-16T09:20:51;102283.06;;;14.33;57.34
71344;BME280;59146;43.850;25.948;2022-10-16T09:23:25;102327.16;;;14.81;56.10
71344;BME280;59146;43.850;25.948;2022-10-16T09:25:51;102296.19;;;14.69;56.25
71344;BME280;59146;43.850;25.948;2022-10-16T09:28:18;102338.78;;;15.11;54.94
71344;BME280;59146;43.850;25.948;2022-10-16T09:30:44;102267.03;;;14.74;55.00
71344;BME280;59146;43.850;25.948;2022-10-16T09:33:12;102319.13;;;15.01;55.51
71344;BME280;59146;43.850;25.948;2022-10-16T09:35:47;102307.78;;;15.17;54.06
71344;BME280;59146;43.850;25.948;2022-10-16T09:40:48;102291.84;;;15.37;52.58
71344;BME280;59146;43.850;25.948;2022-10-16T09:43:41;102325.19;;;15.86;51.77
71344;BME280;59146;43.850;25.948;2022-10-16T09:48:50;102168.50;;;14.96;51.69
71344;BME280;59146;43.850;25.948;2022-10-16T09:53:48;102245.38;;;15.36;52.07
71344;BME280;59146;43.850;25.948;2022-10-16T09:56:28;102264.50;;;15.72;51.70
71344;BME280;59146;43.850;25.948;2022-10-16T09:58:56;102220.47;;;15.58;51.09
71344;BME280;59146;43.850;25.948;2022-10-16T10:01:30;102186.28;;;15.41;50.39
71344;BME280;59146;43.850;25.948;2022-10-16T10:03:57;102130.38;;;15.21;50.32
71344;BME280;59146;43.850;25.948;2022-10-16T10:06:40;102256.19;;;15.95;49.99
71344;BME280;59146;43.850;25.948;2022-10-16T10:11:58;102270.13;;;16.28;48.92
71344;BME280;59146;43.850;25.948;2022-10-16T10:17:02;102288.84;;;16.39;49.23
71344;BME280;59146;43.850;25.948;2022-10-16T10:19:40;102271.69;;;16.17;48.44
71344;BME280;59146;43.850;25.948;2022-10-16T10:32:54;102269.44;;;16.56;46.43
71344;BME280;59146;43.850;25.948;2022-10-16T10:35:28;102217.38;;;16.44;47.04
71344;BME280;59146;43.850;25.948;2022-10-16T10:38:11;102271.34;;;16.98;46.40
71344;BME280;59146;43.850;25.948;2022-10-16T11:03:40;102181.66;;;16.82;44.46
71344;BME280;59146;43.850;25.948;2022-10-16T11:08:26;102247.25;;;17.18;44.19
71344;BME280;59146;43.850;25.948;2022-10-16T11:11:03;102267.66;;;17.30;44.16
71344;BME280;59146;43.850;25.948;2022-10-16T11:14:34;102259.78;;;17.28;43.19
71344;BME280;59146;43.850;25.948;2022-10-16T11:16:43;102262.00;;;17.36;44.10
71344;BME280;59146;43.850;25.948;2022-10-16T11:22:30;102267.06;;;17.39;44.12
71344;BME280;59146;43.850;25.948;2022-10-16T11:25:06;102230.84;;;17.41;44.42
71344;BME280;59146;43.850;25.948;2022-10-16T11:27:44;102202.63;;;17.41;42.54
71344;BME280;59146;43.850;25.948;2022-10-16T11:30:40;102248.78;;;17.64;40.79
71344;BME280;59146;43.850;25.948;2022-10-16T11:36:39;102244.84;;;17.98;42.06
71344;BME280;59146;43.850;25.948;2022-10-16T11:39:19;102197.25;;;17.71;42.11
71344;BME280;59146;43.850;25.948;2022-10-16T11:41:49;102269.69;;;18.09;42.17
71344;BME280;59146;43.850;25.948;2022-10-16T11:49:47;102174.06;;;17.89;42.01
71344;BME280;59146;43.850;25.948;2022-10-16T11:52:22;102250.13;;;18.39;42.29
71344;BME280;59146;43.850;25.948;2022-10-16T11:54:57;102174.34;;;17.98;42.49
71344;BME280;59146;43.850;25.948;2022-10-16T11:57:27;102240.84;;;18.46;41.03
71344;BME280;59146;43.850;25.948;2022-10-16T11:59:58;102238.13;;;18.33;41.39
71344;BME280;59146;43.850;25.948;2022-10-16T12:07:57;102250.31;;;18.36;41.14
71344;BME280;59146;43.850;25.948;2022-10-16T12:10:28;102198.63;;;17.91;41.32
71344;BME280;59146;43.850;25.948;2022-10-16T12:12:57;102248.88;;;18.17;41.22
71344;BME280;59146;43.850;25.948;2022-10-16T12:15:28;102233.94;;;18.16;41.13
71344;BME280;59146;43.850;25.948;2022-10-16T12:17:55;102228.47;;;17.79;41.72
71344;BME280;59146;43.850;25.948;2022-10-16T12:20:27;102243.41;;;18.06;41.45
71344;BME280;59146;43.850;25.948;2022-10-16T12:22:55;102178.19;;;17.80;40.42
71344;BME280;59146;43.850;25.948;2022-10-16T12:25:33;102207.72;;;18.13;40.54
71344;BME280;59146;43.850;25.948;2022-10-16T12:28:17;102266.16;;;18.50;40.81
71344;BME280;59146;43.850;25.948;2022-10-16T12:30:53;102248.94;;;18.57;41.19
71344;BME280;59146;43.850;25.948;2022-10-16T12:33:31;102258.38;;;18.61;40.32
71344;BME280;59146;43.850;25.948;2022-10-16T12:35:59;102216.28;;;18.44;40.61
71344;BME280;59146;43.850;25.948;2022-10-16T12:38:37;102142.69;;;18.23;40.45
71344;BME280;59146;43.850;25.948;2022-10-16T12:41:08;102230.25;;;18.72;41.40
71344;BME280;59146;43.850;25.948;2022-10-16T12:43:42;102197.69;;;18.45;42.04
71344;BME280;59146;43.850;25.948;2022-10-16T12:48:34;102235.31;;;18.75;40.70
71344;BME280;59146;43.850;25.948;2022-10-16T12:51:19;102262.34;;;18.93;40.17
71344;BME280;59146;43.850;25.948;2022-10-16T12:54:01;102223.03;;;18.62;40.03
71344;BME280;59146;43.850;25.948;2022-10-16T12:56:58;102263.94;;;18.83;39.92
71344;BME280;59146;43.850;25.948;2022-10-16T13:10:44;102264.53;;;18.74;39.35
71344;BME280;59146;43.850;25.948;2022-10-16T13:27:00;102260.56;;;18.54;39.92
71344;BME280;59146;43.850;25.948;2022-10-16T13:29:31;102218.41;;;18.24;39.36
71344;BME280;59146;43.850;25.948;2022-10-16T13:31:58;102256.75;;;18.32;39.54
71344;BME280;59146;43.850;25.948;2022-10-16T13:34:26;102239.44;;;18.13;39.81
71344;BME280;59146;43.850;25.948;2022-10-16T13:36:53;102227.59;;;17.92;40.27
71344;BME280;59146;43.850;25.948;2022-10-16T13:39:24;102191.28;;;17.82;40.27
71344;BME280;59146;43.850;25.948;2022-10-16T13:42:10;102245.13;;;18.07;39.65
71344;BME280;59146;43.850;25.948;2022-10-16T13:44:44;102249.28;;;18.11;39.73
71344;BME280;59146;43.850;25.948;2022-10-16T13:47:18;102236.75;;;18.01;39.67
71344;BME280;59146;43.850;25.948;2022-10-16T13:49:44;102244.63;;;18.15;40.73
71344;BME280;59146;43.850;25.948;2022-10-16T13:52:20;102263.75;;;18.33;40.18
71344;BME280;59146;43.850;25.948;2022-10-16T13:54:46;102217.50;;;17.85;39.94
71344;BME280;59146;43.850;25.948;2022-10-16T13:57:14;102251.41;;;17.92;40.04
71344;BME280;59146;43.850;25.948;2022-10-16T13:59:40;102262.16;;;18.03;40.01
71344;BME280;59146;43.850;25.948;2022-10-16T14:04:55;102202.31;;;17.74;39.86
71344;BME280;59146;43.850;25.948;2022-10-16T14:07:26;102226.84;;;17.90;40.09
71344;BME280;59146;43.850;25.948;2022-10-16T14:09:54;102270.88;;;18.18;40.01
71344;BME280;59146;43.850;25.948;2022-10-16T14:12:20;102249.28;;;17.97;39.23
71344;BME280;59146;43.850;25.948;2022-10-16T14:14:47;102276.75;;;18.09;39.83
71344;BME280;59146;43.850;25.948;2022-10-16T14:17:29;102183.66;;;17.49;39.56
71344;BME280;59146;43.850;25.948;2022-10-16T14:19:58;102254.81;;;17.66;40.39
71344;BME280;59146;43.850;25.948;2022-10-16T14:24:55;102209.94;;;17.52;38.99
71344;BME280;59146;43.850;25.948;2022-10-16T14:27:39;102234.72;;;17.64;38.71
71344;BME280;59146;43.850;25.948;2022-10-16T14:32:33;102227.16;;;17.43;39.56
71344;BME280;59146;43.850;25.948;2022-10-16T14:34:58;102086.31;;;16.60;39.83
71344;BME280;59146;43.850;25.948;2022-10-16T14:37:28;102271.44;;;17.68;39.36
71344;BME280;59146;43.850;25.948;2022-10-16T14:39:55;102290.41;;;17.75;39.40
71344;BME280;59146;43.850;25.948;2022-10-16T14:42:24;102249.03;;;17.45;39.51
71344;BME280;59146;43.850;25.948;2022-10-16T14:44:51;102289.75;;;17.57;39.31
71344;BME280;59146;43.850;25.948;2022-10-16T14:47:20;102271.78;;;17.48;39.33
71344;BME280;59146;43.850;25.948;2022-10-16T14:49:50;102227.19;;;17.15;39.88
71344;BME280;59146;43.850;25.948;2022-10-16T14:52:16;102292.41;;;17.57;39.46
71344;BME280;59146;43.850;25.948;2022-10-16T14:54:41;102252.63;;;17.30;39.25
71344;BME280;59146;43.850;25.948;2022-10-16T14:57:17;102267.44;;;17.33;39.62
71344;BME280;59146;43.850;25.948;2022-10-16T14:59:43;102276.31;;;17.32;39.46
71344;BME280;59146;43.850;25.948;2022-10-16T15:02:29;102296.50;;;17.33;39.83
71344;BME280;59146;43.850;25.948;2022-10-16T15:04:55;102195.31;;;16.60;40.26
71344;BME280;59146;43.850;25.948;2022-10-16T15:07:21;102307.81;;;17.21;40.20
71344;BME280;59146;43.850;25.948;2022-10-16T15:09:46;102238.91;;;16.82;40.55